Time,TemperatureF,DewpointF,PressureIn,WindDirection,WindDirectionDegrees,WindSpeedMPH,WindSpeedGustMPH,Humidity,HourlyPrecipIn,Conditions,Clouds,dailyrainin,SoftwareType,DateUTC
2013-07-28 00:02:00,80.0,-99.9,29.93,South,183,16.0,22.0,-999,-99.99,,,-99.99,,2013-07-28 05:02:00,
2013-07-28 00:12:00,80.0,-99.9,29.93,South,184,15.0,20.0,-999,-99.99,,,-99.99,,2013-07-28 05:12:00,
2013-07-28 00:32:00,81.0,-99.9,29.93,South,171,14.0,20.0,-999,-99.99,,,-99.99,,2013-07-28 05:32:00,
2013-07-28 00:43:00,81.0,-99.9,29.93,South,170,16.0,21.0,-999,-99.99,,,-99.99,,2013-07-28 05:43:00,
2013-07-28 00:53:00,82.0,-99.9,29.91,SSE,166,19.0,23.0,-999,-99.99,,,-99.99,,2013-07-28 05:53:00,
2013-07-28 01:02:00,81.0,-99.9,29.91,South,170,17.0,23.0,-999,-99.99,,,-99.99,,2013-07-28 06:02:00,
2013-07-28 01:12:00,81.0,-99.9,29.91,SSE,157,20.0,21.0,-999,-99.99,,,-99.99,,2013-07-28 06:12:00,
2013-07-28 01:32:00,82.0,-99.9,29.95,South,188,12.0,19.0,-999,-99.99,,,-99.99,,2013-07-28 06:32:00,
2013-07-28 01:43:00,81.0,-99.9,29.92,South,178,19.0,24.0,-999,-99.99,,,-99.99,,2013-07-28 06:43:00,
2013-07-28 01:53:00,81.0,-99.9,29.92,South,185,21.0,24.0,-999,-99.99,,,-99.99,,2013-07-28 06:53:00,
2013-07-28 02:02:00,81.0,-99.9,29.91,South,184,19.0,25.0,-999,-99.99,,,-99.99,,2013-07-28 07:02:00,
2013-07-28 02:12:00,81.0,-99.9,29.90,South,186,16.0,21.0,-999,-99.99,,,-99.99,,2013-07-28 07:12:00,
2013-07-28 02:32:00,81.0,-99.9,29.92,SW,215,13.0,19.0,-999,-99.99,,,-99.99,,2013-07-28 07:32:00,
2013-07-28 02:43:00,81.0,-99.9,29.92,SSW,209,12.0,17.0,-999,-99.99,,,-99.99,,2013-07-28 07:43:00,
2013-07-28 02:53:00,80.0,-99.9,29.91,SW,227,12.0,15.0,-999,-99.99,,,-99.99,,2013-07-28 07:53:00,
2013-07-28 03:02:00,81.0,-99.9,29.89,SSW,209,13.0,24.0,-999,-99.99,,,-99.99,,2013-07-28 08:02:00,
2013-07-28 03:12:00,81.0,-99.9,29.90,SW,227,16.0,22.0,-999,-99.99,,,-99.99,,2013-07-28 08:12:00,
2013-07-28 03:33:00,78.0,-99.9,29.92,West,260,19.0,24.0,-999,-99.99,,,-99.99,,2013-07-28 08:33:00,
2013-07-28 03:43:00,78.0,-99.9,29.92,West,261,17.0,23.0,-999,-99.99,,,-99.99,,2013-07-28 08:43:00,
2013-07-28 03:53:00,77.0,-99.9,29.90,WSW,255,14.0,25.0,-999,-99.99,,,-99.99,,2013-07-28 08:53:00,
2013-07-28 04:02:00,78.0,-99.9,29.89,WSW,254,13.0,23.0,-999,-99.99,,,-99.99,,2013-07-28 09:02:00,
2013-07-28 04:12:00,78.0,-99.9,29.90,WSW,242,10.0,18.0,-999,-99.99,,,-99.99,,2013-07-28 09:12:00,
2013-07-28 04:32:00,79.0,-99.9,29.91,WSW,250,15.0,17.0,-999,-99.99,,,-99.99,,2013-07-28 09:32:00,
2013-07-28 04:43:00,80.0,-99.9,29.91,WSW,244,13.0,19.0,-999,-99.99,,,-99.99,,2013-07-28 09:43:00,
2013-07-28 04:53:00,80.0,-99.9,29.90,WSW,243,15.0,19.0,-999,-99.99,,,-99.99,,2013-07-28 09:53:00,
2013-07-28 05:02:00,81.0,-99.9,29.91,WSW,246,13.0,19.0,-999,-99.99,,,-99.99,,2013-07-28 10:02:00,
2013-07-28 05:12:00,81.0,-99.9,29.91,WSW,245,13.0,20.0,-999,-99.99,,,-99.99,,2013-07-28 10:12:00,
2013-07-28 05:33:00,81.0,-99.9,29.92,WSW,247,12.0,16.0,-999,-99.99,,,-99.99,,2013-07-28 10:33:00,
2013-07-28 05:42:00,81.0,-99.9,29.92,West,261,10.0,18.0,-999,-99.99,,,-99.99,,2013-07-28 10:42:00,
2013-07-28 05:53:00,81.0,-99.9,29.92,WSW,258,13.0,18.0,-999,-99.99,,,-99.99,,2013-07-28 10:53:00,
2013-07-28 06:12:00,80.0,-99.9,29.93,West,261,9.0,13.0,-999,-99.99,,,-99.99,,2013-07-28 11:12:00,
2013-07-28 06:33:00,81.0,-99.9,29.93,West,264,9.0,19.0,-999,-99.99,,,-99.99,,2013-07-28 11:33:00,
2013-07-28 06:43:00,80.0,-99.9,29.93,WSW,253,13.0,20.0,-999,-99.99,,,-99.99,,2013-07-28 11:43:00,
2013-07-28 06:54:00,81.0,-99.9,29.94,WSW,252,8.0,11.0,-999,-99.99,,,-99.99,,2013-07-28 11:54:00,
2013-07-28 07:03:00,81.0,-99.9,29.94,West,267,8.0,12.0,-999,-99.99,,,-99.99,,2013-07-28 12:03:00,
2013-07-28 07:13:00,80.0,-99.9,29.95,West,264,8.0,12.0,-999,-99.99,,,-99.99,,2013-07-28 12:13:00,
2013-07-28 07:33:00,79.0,-99.9,29.94,West,273,7.0,9.0,-999,-99.99,,,-99.99,,2013-07-28 12:33:00,
2013-07-28 07:43:00,79.0,-99.9,29.94,NW,323,14.0,21.0,-999,-99.99,,,-99.99,,2013-07-28 12:43:00,
2013-07-28 07:53:00,79.0,-99.9,29.95,WNW,301,18.0,22.0,-999,-99.99,,,-99.99,,2013-07-28 12:53:00,
2013-07-28 08:02:00,79.0,-99.9,29.96,NW,319,17.0,21.0,-999,-99.99,,,-99.99,,2013-07-28 13:02:00,
2013-07-28 08:12:00,79.0,-99.9,29.96,NW,313,16.0,18.0,-999,-99.99,,,-99.99,,2013-07-28 13:12:00,
2013-07-28 08:32:00,79.0,-99.9,29.98,NNW,330,13.0,16.0,-999,-99.99,,,-99.99,,2013-07-28 13:32:00,
2013-07-28 08:43:00,79.0,-99.9,29.98,NW,325,13.0,15.0,-999,-99.99,,,-99.99,,2013-07-28 13:43:00,
2013-07-28 08:53:00,79.0,-99.9,29.99,NNW,339,9.0,11.0,-999,-99.99,,,-99.99,,2013-07-28 13:53:00,
2013-07-28 09:02:00,79.0,-99.9,29.98,NNW,332,9.0,10.0,-999,-99.99,,,-99.99,,2013-07-28 14:02:00,
2013-07-28 09:12:00,79.0,-99.9,29.97,NW,322,7.0,9.0,-999,-99.99,,,-99.99,,2013-07-28 14:12:00,
2013-07-28 09:33:00,79.0,-99.9,29.97,NW,306,13.0,15.0,-999,-99.99,,,-99.99,,2013-07-28 14:33:00,
2013-07-28 09:43:00,79.0,-99.9,29.96,NW,306,12.0,14.0,-999,-99.99,,,-99.99,,2013-07-28 14:43:00,
2013-07-28 09:53:00,78.0,-99.9,29.97,WNW,301,12.0,15.0,-999,-99.99,,,-99.99,,2013-07-28 14:53:00,
2013-07-28 10:03:00,78.0,-99.9,29.97,NW,307,11.0,13.0,-999,-99.99,,,-99.99,,2013-07-28 15:03:00,
2013-07-28 10:13:00,78.0,-99.9,29.97,WNW,302,9.0,11.0,-999,-99.99,,,-99.99,,2013-07-28 15:13:00,
2013-07-28 10:33:00,79.0,-99.9,29.98,NW,308,9.0,12.0,-999,-99.99,,,-99.99,,2013-07-28 15:33:00,
2013-07-28 10:43:00,79.0,-99.9,29.98,WNW,303,8.0,12.0,-999,-99.99,,,-99.99,,2013-07-28 15:43:00,
2013-07-28 10:53:00,79.0,-99.9,29.97,WNW,298,10.0,12.0,-999,-99.99,,,-99.99,,2013-07-28 15:53:00,
2013-07-28 11:03:00,80.0,-99.9,29.98,WNW,298,9.0,11.0,-999,-99.99,,,-99.99,,2013-07-28 16:03:00,
2013-07-28 11:12:00,80.0,-99.9,29.98,NW,309,9.0,12.0,-999,-99.99,,,-99.99,,2013-07-28 16:12:00,
2013-07-28 11:33:00,80.0,-99.9,29.98,WNW,297,11.0,15.0,-999,-99.99,,,-99.99,,2013-07-28 16:33:00,
2013-07-28 11:43:00,81.0,-99.9,29.99,NW,309,13.0,15.0,-999,-99.99,,,-99.99,,2013-07-28 16:43:00,
2013-07-28 11:53:00,81.0,-99.9,29.99,WNW,301,12.0,15.0,-999,-99.99,,,-99.99,,2013-07-28 16:53:00,
2013-07-28 12:02:00,81.0,-99.9,29.99,WNW,297,13.0,15.0,-999,-99.99,,,-99.99,,2013-07-28 17:02:00,
2013-07-28 12:13:00,82.0,-99.9,29.99,WNW,295,13.0,16.0,-999,-99.99,,,-99.99,,2013-07-28 17:13:00,
2013-07-28 12:33:00,82.0,-99.9,30.00,WNW,296,13.0,14.0,-999,-99.99,,,-99.99,,2013-07-28 17:33:00,
2013-07-28 12:43:00,82.0,-99.9,30.00,West,277,9.0,13.0,-999,-99.99,,,-99.99,,2013-07-28 17:43:00,
2013-07-28 12:53:00,82.0,-99.9,30.00,WNW,299,9.0,13.0,-999,-99.99,,,-99.99,,2013-07-28 17:53:00,
2013-07-28 13:03:00,84.0,-99.9,30.00,WSW,242,6.0,11.0,-999,-99.99,,,-99.99,,2013-07-28 18:03:00,
2013-07-28 13:13:00,83.0,-99.9,29.99,WSW,244,7.0,11.0,-999,-99.99,,,-99.99,,2013-07-28 18:13:00,
2013-07-28 13:33:00,83.0,-99.9,29.98,WSW,240,9.0,13.0,-999,-99.99,,,-99.99,,2013-07-28 18:33:00,
2013-07-28 13:43:00,83.0,-99.9,29.98,WSW,240,11.0,13.0,-999,-99.99,,,-99.99,,2013-07-28 18:43:00,
2013-07-28 13:52:00,83.0,-99.9,29.98,SW,228,9.0,13.0,-999,-99.99,,,-99.99,,2013-07-28 18:52:00,
2013-07-28 14:03:00,83.0,-99.9,29.97,WSW,238,9.0,12.0,-999,-99.99,,,-99.99,,2013-07-28 19:03:00,
2013-07-28 14:13:00,83.0,-99.9,29.97,SW,222,11.0,13.0,-999,-99.99,,,-99.99,,2013-07-28 19:13:00,
2013-07-28 14:33:00,83.0,-99.9,29.97,SW,218,8.0,12.0,-999,-99.99,,,-99.99,,2013-07-28 19:33:00,
2013-07-28 14:43:00,83.0,-99.9,29.97,SW,220,8.0,13.0,-999,-99.99,,,-99.99,,2013-07-28 19:43:00,
2013-07-28 14:53:00,83.0,-99.9,29.97,SW,225,9.0,13.0,-999,-99.99,,,-99.99,,2013-07-28 19:53:00,
2013-07-28 15:03:00,83.0,-99.9,29.97,SW,226,9.0,11.0,-999,-99.99,,,-99.99,,2013-07-28 20:03:00,
2013-07-28 15:13:00,83.0,-99.9,29.97,SSW,207,7.0,12.0,-999,-99.99,,,-99.99,,2013-07-28 20:13:00,
2013-07-28 15:33:00,84.0,-99.9,29.97,SW,223,7.0,11.0,-999,-99.99,,,-99.99,,2013-07-28 20:33:00,
2013-07-28 15:43:00,83.0,-99.9,29.97,SW,226,7.0,11.0,-999,-99.99,,,-99.99,,2013-07-28 20:43:00,
2013-07-28 15:53:00,83.0,-99.9,29.97,SSW,211,6.0,11.0,-999,-99.99,,,-99.99,,2013-07-28 20:53:00,
2013-07-28 16:03:00,83.0,-99.9,29.97,SSW,213,7.0,10.0,-999,-99.99,,,-99.99,,2013-07-28 21:03:00,
2013-07-28 16:13:00,83.0,-99.9,29.97,SSW,208,5.0,11.0,-999,-99.99,,,-99.99,,2013-07-28 21:13:00,
2013-07-28 16:33:00,83.0,-99.9,29.98,SW,231,8.0,11.0,-999,-99.99,,,-99.99,,2013-07-28 21:33:00,
2013-07-28 16:44:00,83.0,-99.9,29.98,SSW,212,7.0,10.0,-999,-99.99,,,-99.99,,2013-07-28 21:44:00,
2013-07-28 16:52:00,83.0,-99.9,29.98,SW,223,9.0,11.0,-999,-99.99,,,-99.99,,2013-07-28 21:52:00,
2013-07-28 17:02:00,83.0,-99.9,29.97,SW,227,10.0,13.0,-999,-99.99,,,-99.99,,2013-07-28 22:02:00,
2013-07-28 17:12:00,84.0,-99.9,29.97,SW,219,8.0,12.0,-999,-99.99,,,-99.99,,2013-07-28 22:12:00,
2013-07-28 17:32:00,84.0,-99.9,29.97,SW,215,9.0,11.0,-999,-99.99,,,-99.99,,2013-07-28 22:32:00,
2013-07-28 17:43:00,84.0,-99.9,29.97,SSW,206,6.0,12.0,-999,-99.99,,,-99.99,,2013-07-28 22:43:00,
2013-07-28 17:52:00,84.0,-99.9,29.97,SW,215,7.0,11.0,-999,-99.99,,,-99.99,,2013-07-28 22:52:00,
2013-07-28 18:03:00,83.0,-99.9,29.97,SW,217,8.0,13.0,-999,-99.99,,,-99.99,,2013-07-28 23:03:00,
2013-07-28 18:12:00,83.0,-99.9,29.97,SW,223,10.0,12.0,-999,-99.99,,,-99.99,,2013-07-28 23:12:00,
2013-07-28 18:33:00,84.0,-99.9,29.97,SW,231,9.0,14.0,-999,-99.99,,,-99.99,,2013-07-28 23:33:00,
2013-07-28 18:43:00,83.0,-99.9,29.96,SW,227,11.0,13.0,-999,-99.99,,,-99.99,,2013-07-28 23:43:00,
2013-07-28 18:53:00,83.0,-99.9,29.96,SW,225,10.0,13.0,-999,-99.99,,,-99.99,,2013-07-28 23:53:00,
2013-07-28 19:03:00,84.0,-99.9,29.96,WSW,239,7.0,12.0,-999,-99.99,,,-99.99,,2013-07-29 00:03:00,
2013-07-28 19:12:00,84.0,-99.9,29.97,SW,231,6.0,10.0,-999,-99.99,,,-99.99,,2013-07-29 00:12:00,
2013-07-28 19:32:00,84.0,-99.9,29.98,WSW,240,7.0,11.0,-999,-99.99,,,-99.99,,2013-07-29 00:32:00,
2013-07-28 19:43:00,84.0,-99.9,29.98,SW,236,7.0,10.0,-999,-99.99,,,-99.99,,2013-07-29 00:43:00,
2013-07-28 19:52:00,83.0,-99.9,29.98,WSW,245,7.0,10.0,-999,-99.99,,,-99.99,,2013-07-29 00:52:00,
2013-07-28 20:02:00,83.0,-99.9,29.98,West,260,7.0,9.0,-999,-99.99,,,-99.99,,2013-07-29 01:02:00,
2013-07-28 20:14:00,83.0,-99.9,29.99,WSW,244,4.0,8.0,-999,-99.99,,,-99.99,,2013-07-29 01:14:00,
2013-07-28 20:39:00,83.0,-99.9,30.00,West,264,5.0,7.0,-999,-99.99,,,-99.99,,2013-07-29 01:39:00,
2013-07-28 20:47:00,82.0,-99.9,29.99,WSW,256,6.0,9.0,-999,-99.99,,,-99.99,,2013-07-29 01:47:00,
2013-07-28 21:02:00,83.0,-99.9,29.99,WSW,255,6.0,8.0,-999,-99.99,,,-99.99,,2013-07-29 02:02:00,
2013-07-28 21:15:00,83.0,-99.9,30.00,WSW,251,5.0,7.0,-999,-99.99,,,-99.99,,2013-07-29 02:15:00,
2013-07-28 21:40:00,83.0,-99.9,30.01,West,262,5.0,7.0,-999,-99.99,,,-99.99,,2013-07-29 02:40:00,
2013-07-28 21:50:00,83.0,-99.9,30.01,West,262,4.0,6.0,-999,-99.99,,,-99.99,,2013-07-29 02:50:00,
2013-07-28 22:00:00,83.0,-99.9,30.01,WSW,255,4.0,6.0,-999,-99.99,,,-99.99,,2013-07-29 03:00:00,
2013-07-28 22:05:00,83.0,-99.9,30.02,West,268,4.0,6.0,-999,-99.99,,,-99.99,,2013-07-29 03:05:00,
2013-07-28 22:17:00,83.0,-99.9,30.02,WSW,258,5.0,7.0,-999,-99.99,,,-99.99,,2013-07-29 03:17:00,
2013-07-28 22:38:00,83.0,-99.9,30.03,WSW,248,4.0,8.0,-999,-99.99,,,-99.99,,2013-07-29 03:38:00,
2013-07-28 22:51:00,83.0,-99.9,30.02,West,259,6.0,7.0,-999,-99.99,,,-99.99,,2013-07-29 03:51:00,
2013-07-28 22:58:00,83.0,-99.9,30.03,WSW,245,4.0,7.0,-999,-99.99,,,-99.99,,2013-07-29 03:58:00,
2013-07-28 23:02:00,83.0,-99.9,30.02,West,262,6.0,7.0,-999,-99.99,,,-99.99,,2013-07-29 04:02:00,
2013-07-28 23:12:00,83.0,-99.9,30.03,WSW,250,4.0,7.0,-999,-99.99,,,-99.99,,2013-07-29 04:12:00,
2013-07-28 23:33:00,83.0,-99.9,30.03,West,259,3.0,5.0,-999,-99.99,,,-99.99,,2013-07-29 04:33:00,
2013-07-28 23:43:00,83.0,-99.9,30.03,WSW,249,4.0,6.0,-999,-99.99,,,-99.99,,2013-07-29 04:43:00,
2013-07-28 23:53:00,83.0,-99.9,30.02,WSW,241,4.0,6.0,-999,-99.99,,,-99.99,,2013-07-29 04:53:00,